sensor_id;sensor_type;location;lat;lon;timestamp;P1;durP1;ratioP1;P2;durP2;ratioP2
73569;SDS011;61850;54.980;73.298;2022-08-07T00:01:07;23.60;;;18.63;;
73569;SDS011;61850;54.980;73.298;2022-08-07T00:03:34;29.90;;;20.23;;
73569;SDS011;61850;54.980;73.298;2022-08-07T00:06:00;30.38;;;18.98;;
73569;SDS011;61850;54.980;73.298;2022-08-07T00:08:26;30.00;;;18.13;;
73569;SDS011;61850;54.980;73.298;2022-08-07T00:10:53;27.58;;;19.15;;
73569;SDS011;61850;54.980;73.298;2022-08-07T00:13:19;24.85;;;18.48;;
73569;SDS011;61850;54.980;73.298;2022-08-07T00:15:47;26.75;;;19.48;;
73569;SDS011;61850;54.980;73.298;2022-08-07T00:18:20;26.23;;;18.25;;
73569;SDS011;61850;54.980;73.298;2022-08-07T00:20:47;27.58;;;18.38;;
73569;SDS011;61850;54.980;73.298;2022-08-07T00:23:17;27.40;;;18.23;;
73569;SDS011;61850;54.980;73.298;2022-08-07T00:25:43;27.52;;;18.05;;
73569;SDS011;61850;54.980;73.298;2022-08-07T00:28:09;28.30;;;19.35;;
73569;SDS011;61850;54.980;73.298;2022-08-07T00:30:35;21.95;;;16.98;;
73569;SDS011;61850;54.980;73.298;2022-08-07T00:33:02;24.98;;;18.48;;
73569;SDS011;61850;54.980;73.298;2022-08-07T00:35:28;28.08;;;18.38;;
73569;SDS011;61850;54.980;73.298;2022-08-07T00:37:54;24.73;;;18.55;;
73569;SDS011;61850;54.980;73.298;2022-08-07T00:40:21;30.45;;;19.10;;
73569;SDS011;61850;54.980;73.298;2022-08-07T00:42:47;35.78;;;19.45;;
73569;SDS011;61850;54.980;73.298;2022-08-07T00:45:14;27.48;;;19.73;;
73569;SDS011;61850;54.980;73.298;2022-08-07T00:47:41;27.50;;;19.27;;
73569;SDS011;61850;54.980;73.298;2022-08-07T00:50:07;25.38;;;18.25;;
73569;SDS011;61850;54.980;73.298;2022-08-07T00:52:33;26.20;;;19.25;;
73569;SDS011;61850;54.980;73.298;2022-08-07T00:55:00;30.70;;;19.83;;
73569;SDS011;61850;54.980;73.298;2022-08-07T00:57:26;27.92;;;19.95;;
73569;SDS011;61850;54.980;73.298;2022-08-07T00:59:52;32.45;;;19.80;;
73569;SDS011;61850;54.980;73.298;2022-08-07T01:02:22;30.63;;;19.33;;
73569;SDS011;61850;54.980;73.298;2022-08-07T01:04:49;27.15;;;19.60;;
73569;SDS011;61850;54.980;73.298;2022-08-07T01:07:16;31.30;;;21.25;;
73569;SDS011;61850;54.980;73.298;2022-08-07T01:09:46;31.55;;;22.40;;
73569;SDS011;61850;54.980;73.298;2022-08-07T01:12:13;36.08;;;25.20;;
73569;SDS011;61850;54.980;73.298;2022-08-07T01:14:40;42.17;;;28.08;;
73569;SDS011;61850;54.980;73.298;2022-08-07T01:17:08;53.25;;;36.75;;
73569;SDS011;61850;54.980;73.298;2022-08-07T01:19:34;90.22;;;52.65;;
73569;SDS011;61850;54.980;73.298;2022-08-07T01:22:02;111.72;;;63.47;;
73569;SDS011;61850;54.980;73.298;2022-08-07T01:24:35;129.00;;;71.20;;
73569;SDS011;61850;54.980;73.298;2022-08-07T01:27:05;129.68;;;71.32;;
73569;SDS011;61850;54.980;73.298;2022-08-07T01:29:31;129.50;;;72.22;;
73569;SDS011;61850;54.980;73.298;2022-08-07T01:31:59;122.20;;;70.88;;
73569;SDS011;61850;54.980;73.298;2022-08-07T01:34:38;124.38;;;70.43;;
73569;SDS011;61850;54.980;73.298;2022-08-07T01:37:10;123.25;;;74.13;;
73569;SDS011;61850;54.980;73.298;2022-08-07T01:39:44;132.13;;;77.22;;
73569;SDS011;61850;54.980;73.298;2022-08-07T01:42:16;124.82;;;78.20;;
73569;SDS011;61850;54.980;73.298;2022-08-07T01:44:44;124.30;;;76.40;;
73569;SDS011;61850;54.980;73.298;2022-08-07T01:47:17;127.63;;;77.95;;
73569;SDS011;61850;54.980;73.298;2022-08-07T01:49:45;123.25;;;76.55;;
73569;SDS011;61850;54.980;73.298;2022-08-07T01:52:11;120.88;;;75.53;;
73569;SDS011;61850;54.980;73.298;2022-08-07T02:28:51;156.60;;;92.50;;
73569;SDS011;61850;54.980;73.298;2022-08-07T02:37:26;143.18;;;87.47;;
73569;SDS011;61850;54.980;73.298;2022-08-07T02:43:10;145.15;;;84.47;;
73569;SDS011;61850;54.980;73.298;2022-08-07T02:46:01;132.88;;;81.13;;
73569;SDS011;61850;54.980;73.298;2022-08-07T02:48:37;132.77;;;79.68;;
73569;SDS011;61850;54.980;73.298;2022-08-07T02:51:09;127.50;;;76.72;;
73569;SDS011;61850;54.980;73.298;2022-08-07T02:53:48;122.75;;;74.07;;
73569;SDS011;61850;54.980;73.298;2022-08-07T03:42:37;116.47;;;68.53;;
73569;SDS011;61850;54.980;73.298;2022-08-07T03:45:06;111.35;;;68.10;;
73569;SDS011;61850;54.980;73.298;2022-08-07T03:47:35;111.95;;;66.93;;
73569;SDS011;61850;54.980;73.298;2022-08-07T03:50:12;109.68;;;67.60;;
73569;SDS011;61850;54.980;73.298;2022-08-07T03:52:42;109.38;;;65.85;;
73569;SDS011;61850;54.980;73.298;2022-08-07T03:55:11;110.85;;;66.78;;
73569;SDS011;61850;54.980;73.298;2022-08-07T03:57:42;109.68;;;66.93;;
73569;SDS011;61850;54.980;73.298;2022-08-07T04:00:16;107.65;;;65.78;;
73569;SDS011;61850;54.980;73.298;2022-08-07T04:02:50;108.53;;;67.57;;
73569;SDS011;61850;54.980;73.298;2022-08-07T04:05:28;111.55;;;69.07;;
73569;SDS011;61850;54.980;73.298;2022-08-07T04:26:49;115.20;;;67.95;;
73569;SDS011;61850;54.980;73.298;2022-08-07T04:29:15;109.85;;;68.90;;
73569;SDS011;61850;54.980;73.298;2022-08-07T04:31:43;108.32;;;68.05;;
73569;SDS011;61850;54.980;73.298;2022-08-07T04:34:15;113.53;;;68.55;;
73569;SDS011;61850;54.980;73.298;2022-08-07T04:36:41;108.80;;;67.28;;
73569;SDS011;61850;54.980;73.298;2022-08-07T04:42:11;111.90;;;68.72;;
73569;SDS011;61850;54.980;73.298;2022-08-07T04:44:40;112.75;;;68.55;;
73569;SDS011;61850;54.980;73.298;2022-08-07T04:47:10;115.72;;;70.55;;
73569;SDS011;61850;54.980;73.298;2022-08-07T04:53:12;110.07;;;67.47;;
73569;SDS011;61850;54.980;73.298;2022-08-07T04:56:04;119.95;;;71.80;;
73569;SDS011;61850;54.980;73.298;2022-08-07T05:01:37;108.32;;;70.53;;
73569;SDS011;61850;54.980;73.298;2022-08-07T05:10:28;121.53;;;72.05;;
73569;SDS011;61850;54.980;73.298;2022-08-07T05:15:36;110.88;;;70.00;;
73569;SDS011;61850;54.980;73.298;2022-08-07T05:18:10;116.88;;;69.82;;
73569;SDS011;61850;54.980;73.298;2022-08-07T05:20:48;115.32;;;71.22;;
73569;SDS011;61850;54.980;73.298;2022-08-07T05:23:40;111.45;;;71.03;;
73569;SDS011;61850;54.980;73.298;2022-08-07T05:26:14;111.85;;;71.50;;
73569;SDS011;61850;54.980;73.298;2022-08-07T05:28:44;121.18;;;74.70;;
73569;SDS011;61850;54.980;73.298;2022-08-07T05:31:15;121.22;;;73.53;;
73569;SDS011;61850;54.980;73.298;2022-08-07T05:33:45;121.18;;;75.97;;
73569;SDS011;61850;54.980;73.298;2022-08-07T05:36:15;124.32;;;75.30;;
73569;SDS011;61850;54.980;73.298;2022-08-07T05:38:48;121.43;;;78.50;;
73569;SDS011;61850;54.980;73.298;2022-08-07T05:41:17;118.20;;;74.60;;
73569;SDS011;61850;54.980;73.298;2022-08-07T05:43:48;123.25;;;76.40;;
73569;SDS011;61850;54.980;73.298;2022-08-07T05:46:18;125.18;;;74.78;;
73569;SDS011;61850;54.980;73.298;2022-08-07T05:48:47;113.38;;;70.78;;
73569;SDS011;61850;54.980;73.298;2022-08-07T05:51:15;108.80;;;67.32;;
73569;SDS011;61850;54.980;73.298;2022-08-07T05:53:44;109.95;;;68.65;;
73569;SDS011;61850;54.980;73.298;2022-08-07T05:56:15;104.88;;;66.25;;
73569;SDS011;61850;54.980;73.298;2022-08-07T05:58:58;110.53;;;65.80;;
73569;SDS011;61850;54.980;73.298;2022-08-07T06:01:27;108.15;;;64.95;;
73569;SDS011;61850;54.980;73.298;2022-08-07T06:03:55;111.60;;;67.07;;
73569;SDS011;61850;54.980;73.298;2022-08-07T06:06:23;99.18;;;64.35;;
73569;SDS011;61850;54.980;73.298;2022-08-07T06:08:53;102.82;;;65.15;;
73569;SDS011;61850;54.980;73.298;2022-08-07T06:11:32;108.50;;;67.97;;
73569;SDS011;61850;54.980;73.298;2022-08-07T06:13:59;114.32;;;70.05;;
73569;SDS011;61850;54.980;73.298;2022-08-07T06:16:32;123.82;;;72.80;;
73569;SDS011;61850;54.980;73.298;2022-08-07T06:19:02;117.55;;;70.20;;
73569;SDS011;61850;54.980;73.298;2022-08-07T06:21:29;120.65;;;70.00;;
73569;SDS011;61850;54.980;73.298;2022-08-07T06:23:57;126.50;;;71.55;;
73569;SDS011;61850;54.980;73.298;2022-08-07T06:26:24;130.88;;;73.43;;
73569;SDS011;61850;54.980;73.298;2022-08-07T06:28:52;135.27;;;69.68;;
73569;SDS011;61850;54.980;73.298;2022-08-07T06:31:23;135.23;;;67.88;;
73569;SDS011;61850;54.980;73.298;2022-08-07T06:33:52;128.82;;;65.25;;
73569;SDS011;61850;54.980;73.298;2022-08-07T06:36:19;134.63;;;66.05;;
73569;SDS011;61850;54.980;73.298;2022-08-07T06:38:56;133.02;;;63.53;;
73569;SDS011;61850;54.980;73.298;2022-08-07T06:41:26;100.50;;;54.78;;
73569;SDS011;61850;54.980;73.298;2022-08-07T06:44:11;99.97;;;53.22;;
73569;SDS011;61850;54.980;73.298;2022-08-07T06:46:38;97.03;;;51.97;;
73569;SDS011;61850;54.980;73.298;2022-08-07T06:49:15;89.00;;;49.70;;
73569;SDS011;61850;54.980;73.298;2022-08-07T07:46:06;82.18;;;51.75;;
73569;SDS011;61850;54.980;73.298;2022-08-07T07:48:34;85.50;;;51.53;;
73569;SDS011;61850;54.980;73.298;2022-08-07T08:00:09;89.07;;;53.58;;
73569;SDS011;61850;54.980;73.298;2022-08-07T08:02:38;85.93;;;54.60;;
73569;SDS011;61850;54.980;73.298;2022-08-07T08:05:08;96.50;;;61.53;;
73569;SDS011;61850;54.980;73.298;2022-08-07T08:07:39;90.97;;;56.65;;
73569;SDS011;61850;54.980;73.298;2022-08-07T08:10:07;82.47;;;52.97;;
73569;SDS011;61850;54.980;73.298;2022-08-07T08:12:45;83.03;;;54.15;;
73569;SDS011;61850;54.980;73.298;2022-08-07T08:15:14;89.03;;;55.20;;
73569;SDS011;61850;54.980;73.298;2022-08-07T08:17:50;87.75;;;55.03;;
73569;SDS011;61850;54.980;73.298;2022-08-07T08:20:22;86.75;;;55.35;;
73569;SDS011;61850;54.980;73.298;2022-08-07T08:22:51;91.05;;;56.03;;
73569;SDS011;61850;54.980;73.298;2022-08-07T08:38:19;83.55;;;54.00;;
73569;SDS011;61850;54.980;73.298;2022-08-07T08:40:53;85.25;;;55.55;;
73569;SDS011;61850;54.980;73.298;2022-08-07T08:44:03;83.70;;;55.72;;
73569;SDS011;61850;54.980;73.298;2022-08-07T08:49:19;91.45;;;57.72;;
73569;SDS011;61850;54.980;73.298;2022-08-07T08:51:56;91.65;;;59.08;;
73569;SDS011;61850;54.980;73.298;2022-08-07T08:57:00;92.15;;;58.97;;
73569;SDS011;61850;54.980;73.298;2022-08-07T09:05:02;92.43;;;59.83;;
73569;SDS011;61850;54.980;73.298;2022-08-07T09:07:38;93.43;;;61.10;;
73569;SDS011;61850;54.980;73.298;2022-08-07T09:10:26;92.13;;;58.92;;
73569;SDS011;61850;54.980;73.298;2022-08-07T09:21:33;89.30;;;56.03;;
73569;SDS011;61850;54.980;73.298;2022-08-07T09:30:06;79.25;;;49.88;;
73569;SDS011;61850;54.980;73.298;2022-08-07T12:56:55;17.70;;;11.53;;
73569;SDS011;61850;54.980;73.298;2022-08-07T12:59:26;16.38;;;12.13;;
73569;SDS011;61850;54.980;73.298;2022-08-07T13:02:22;17.55;;;11.73;;
73569;SDS011;61850;54.980;73.298;2022-08-07T13:05:04;16.77;;;11.93;;
73569;SDS011;61850;54.980;73.298;2022-08-07T13:07:38;16.33;;;11.77;;
73569;SDS011;61850;54.980;73.298;2022-08-07T13:16:31;16.70;;;11.55;;
73569;SDS011;61850;54.980;73.298;2022-08-07T13:19:27;17.98;;;11.73;;
73569;SDS011;61850;54.980;73.298;2022-08-07T13:21:58;19.80;;;11.98;;
73569;SDS011;61850;54.980;73.298;2022-08-07T15:32:01;22.40;;;14.57;;
73569;SDS011;61850;54.980;73.298;2022-08-07T15:44:16;25.17;;;14.55;;
73569;SDS011;61850;54.980;73.298;2022-08-07T15:50:05;23.38;;;15.35;;
73569;SDS011;61850;54.980;73.298;2022-08-07T15:58:52;24.80;;;14.88;;
73569;SDS011;61850;54.980;73.298;2022-08-07T16:14:00;24.45;;;14.35;;
73569;SDS011;61850;54.980;73.298;2022-08-07T16:19:33;24.55;;;15.07;;
73569;SDS011;61850;54.980;73.298;2022-08-07T16:25:27;23.17;;;14.45;;
73569;SDS011;61850;54.980;73.298;2022-08-07T16:30:53;22.35;;;14.60;;
73569;SDS011;61850;54.980;73.298;2022-08-07T16:33:26;20.73;;;14.07;;
73569;SDS011;61850;54.980;73.298;2022-08-07T16:38:52;22.30;;;14.27;;
73569;SDS011;61850;54.980;73.298;2022-08-07T16:44:41;22.25;;;14.55;;
73569;SDS011;61850;54.980;73.298;2022-08-07T16:50:09;25.60;;;14.07;;
73569;SDS011;61850;54.980;73.298;2022-08-07T16:55:52;25.35;;;14.90;;
73569;SDS011;61850;54.980;73.298;2022-08-07T17:04:32;21.52;;;12.52;;
73569;SDS011;61850;54.980;73.298;2022-08-07T17:07:11;20.42;;;11.95;;
73569;SDS011;61850;54.980;73.298;2022-08-07T17:09:54;18.85;;;12.55;;
73569;SDS011;61850;54.980;73.298;2022-08-07T17:15:22;19.63;;;12.02;;
73569;SDS011;61850;54.980;73.298;2022-08-07T17:18:17;18.20;;;11.43;;
73569;SDS011;61850;54.980;73.298;2022-08-07T17:21:01;18.02;;;11.90;;
73569;SDS011;61850;54.980;73.298;2022-08-07T17:26:29;16.13;;;11.85;;
73569;SDS011;61850;54.980;73.298;2022-08-07T17:35:10;15.77;;;11.10;;
73569;SDS011;61850;54.980;73.298;2022-08-07T17:37:48;17.02;;;11.57;;
73569;SDS011;61850;54.980;73.298;2022-08-07T18:07:59;15.93;;;10.10;;
73569;SDS011;61850;54.980;73.298;2022-08-07T18:10:40;16.63;;;10.23;;
73569;SDS011;61850;54.980;73.298;2022-08-07T18:13:30;15.73;;;10.98;;
73569;SDS011;61850;54.980;73.298;2022-08-07T18:16:18;16.50;;;9.98;;
73569;SDS011;61850;54.980;73.298;2022-08-07T18:21:39;17.58;;;10.25;;
73569;SDS011;61850;54.980;73.298;2022-08-07T18:33:32;13.85;;;10.05;;
73569;SDS011;61850;54.980;73.298;2022-08-07T18:36:26;16.98;;;10.68;;
73569;SDS011;61850;54.980;73.298;2022-08-07T18:42:17;15.95;;;9.50;;
73569;SDS011;61850;54.980;73.298;2022-08-07T19:15:00;11.25;;;8.30;;
73569;SDS011;61850;54.980;73.298;2022-08-07T19:20:18;13.23;;;8.43;;
73569;SDS011;61850;54.980;73.298;2022-08-07T19:23:06;12.63;;;9.05;;
73569;SDS011;61850;54.980;73.298;2022-08-07T19:25:49;10.88;;;8.23;;
73569;SDS011;61850;54.980;73.298;2022-08-07T19:28:25;13.63;;;9.00;;
73569;SDS011;61850;54.980;73.298;2022-08-07T19:30:54;11.82;;;8.82;;
73569;SDS011;61850;54.980;73.298;2022-08-07T19:33:28;10.32;;;8.35;;
73569;SDS011;61850;54.980;73.298;2022-08-07T19:35:56;12.20;;;8.32;;
73569;SDS011;61850;54.980;73.298;2022-08-07T19:38:25;12.55;;;8.43;;
73569;SDS011;61850;54.980;73.298;2022-08-07T19:40:57;13.40;;;9.13;;
73569;SDS011;61850;54.980;73.298;2022-08-07T19:43:29;11.52;;;8.43;;
73569;SDS011;61850;54.980;73.298;2022-08-07T19:46:06;16.17;;;9.60;;
73569;SDS011;61850;54.980;73.298;2022-08-07T19:51:04;14.60;;;8.60;;
73569;SDS011;61850;54.980;73.298;2022-08-07T19:53:31;12.38;;;7.93;;
73569;SDS011;61850;54.980;73.298;2022-08-07T19:56:00;13.15;;;8.20;;
73569;SDS011;61850;54.980;73.298;2022-08-07T20:04:41;11.77;;;8.07;;
73569;SDS011;61850;54.980;73.298;2022-08-07T20:31:32;11.25;;;7.80;;
73569;SDS011;61850;54.980;73.298;2022-08-07T20:33:59;14.20;;;7.68;;
73569;SDS011;61850;54.980;73.298;2022-08-07T20:36:26;11.77;;;7.93;;
73569;SDS011;61850;54.980;73.298;2022-08-07T20:38:56;12.05;;;7.80;;
73569;SDS011;61850;54.980;73.298;2022-08-07T20:41:24;11.90;;;7.78;;
73569;SDS011;61850;54.980;73.298;2022-08-07T20:53:02;10.80;;;7.60;;
73569;SDS011;61850;54.980;73.298;2022-08-07T20:55:28;11.70;;;8.45;;
73569;SDS011;61850;54.980;73.298;2022-08-07T21:10:01;9.52;;;6.47;;
73569;SDS011;61850;54.980;73.298;2022-08-07T21:12:34;10.85;;;7.57;;
73569;SDS011;61850;54.980;73.298;2022-08-07T21:18:05;12.80;;;7.78;;
73569;SDS011;61850;54.980;73.298;2022-08-07T21:42:06;10.23;;;6.82;;
73569;SDS011;61850;54.980;73.298;2022-08-07T22:05:16;8.88;;;6.55;;
73569;SDS011;61850;54.980;73.298;2022-08-07T22:07:45;9.70;;;7.35;;
73569;SDS011;61850;54.980;73.298;2022-08-07T22:10:14;11.88;;;7.15;;
73569;SDS011;61850;54.980;73.298;2022-08-07T22:16:07;9.80;;;7.00;;
73569;SDS011;61850;54.980;73.298;2022-08-07T22:21:21;9.75;;;6.82;;
73569;SDS011;61850;54.980;73.298;2022-08-07T22:24:01;9.77;;;7.18;;
73569;SDS011;61850;54.980;73.298;2022-08-07T22:26:40;9.05;;;6.68;;
73569;SDS011;61850;54.980;73.298;2022-08-07T22:29:25;9.82;;;6.72;;
73569;SDS011;61850;54.980;73.298;2022-08-07T22:32:25;9.43;;;6.80;;
73569;SDS011;61850;54.980;73.298;2022-08-07T22:38:21;9.80;;;6.75;;
73569;SDS011;61850;54.980;73.298;2022-08-07T22:43:57;9.68;;;6.57;;
73569;SDS011;61850;54.980;73.298;2022-08-07T22:58:03;9.07;;;6.70;;
73569;SDS011;61850;54.980;73.298;2022-08-07T23:20:31;10.35;;;6.28;;
73569;SDS011;61850;54.980;73.298;2022-08-07T23:43:03;11.50;;;6.53;;
73569;SDS011;61850;54.980;73.298;2022-08-07T23:45:51;9.13;;;6.78;;
73569;SDS011;61850;54.980;73.298;2022-08-07T23:48:34;11.32;;;6.65;;
73569;SDS011;61850;54.980;73.298;2022-08-07T23:51:19;10.27;;;6.93;;
